National Geographic Sea Lion — WUR9646 — position and weather

sailwx.info

Track history (hours):
 
Tides and Currents Weather Stations Pressure Air Temp Water Temp Dewpoint Dewpoint Depression Visibility Wind Speed Wind Dir Waves Ship Positions

National Geographic Sea Lion

Owner: Lindblad Expeditions LLC, SEATTLE, WA. More information available from US FCC via Universal Licensing System and Coast Guard Vessel Documentation Center.

Last reported at 2018-Dec-14 08:37 UTC. Time now 2019-Feb-16 03:01 UTC.
Position N 32°17' W 117°06'.
Warning: this ship's position is months out of date.

Length 45 m; draft 2.4 m.

Type: Passenger vessel. MMSI: 366396000.

Date/timePositionNaut miles runAvg speedWind from/ knotsBaromVisibWave heightAir tempDewpointWater temp
2018-Dec-14 08:37N 32°17' W 117°06'1 6.9
2018-Dec-14 08:30N 32°17' W 117°07'4 7.2
2018-Dec-14 08:01N 32°21' W 117°09'4 7.1
2018-Dec-14 07:30N 32°24' W 117°10'4 7.2
2018-Dec-14 07:00N 32°27' W 117°12'4 7.3
2018-Dec-14 06:30N 32°31' W 117°13'4 7.3
2018-Dec-14 06:00N 32°34' W 117°13'4 7.3
2018-Dec-14 05:31N 32°38' W 117°13'4 7.2
2018-Dec-14 05:00N 32°42' W 117°14'3 5.7
2018-Dec-14 04:30N 32°43' W 117°11'2 0.2
2018-Dec-13 18:13N 32°42' W 117°09'1 1.8
2018-Dec-13 17:48N 32°41' W 117°09'1 0.2
2018-Dec-13 14:37N 32°42' W 117°09'0 3.6
2018-Dec-13 14:30N 32°42' W 117°10'3 5.9
2018-Dec-13 14:00N 32°43' W 117°13'4 8.3
2018-Dec-13 13:30N 32°39' W 117°14'5 9.3
2018-Dec-13 13:00N 32°36' W 117°18'5 9.8
2018-Dec-13 12:30N 32°31' W 117°19'5 9.9
2018-Dec-13 12:00N 32°26' W 117°20'510.2
2018-Dec-13 11:30N 32°22' W 117°16'510.0
2018-Dec-13 10:59N 32°18' W 117°12'510.0
2018-Dec-13 10:28N 32°14' W 117°08'5 9.9
2018-Dec-13 10:00N 32°11' W 117°04'810.1
2018-Dec-13 09:10N 32°04' W 116°58'2 9.9
2018-Dec-13 08:57N 32°03' W 116°56'  
Track history (hours):
 
Tides and Currents Weather Stations Pressure Air Temp Water Temp Dewpoint Dewpoint Depression Visibility Wind Speed Wind Dir Waves Ship Positions

National Geographic Sea Lion

Owner: Lindblad Expeditions LLC, SEATTLE, WA. More information available from US FCC via Universal Licensing System and Coast Guard Vessel Documentation Center.

Last reported at 2018-Dec-14 08:37 UTC. Time now 2019-Feb-16 03:01 UTC.
Position N 32°17' W 117°06'.
Warning: this ship's position is months out of date.

Length 45 m; draft 2.4 m.

Type: Passenger vessel. MMSI: 366396000.

Date/timePositionNaut miles runAvg speedWind from/ knotsBaromVisibWave heightAir tempDewpointWater temp
2018-Dec-14 08:37N 32°17' W 117°06'1 6.9
2018-Dec-14 08:30N 32°17' W 117°07'4 7.2
2018-Dec-14 08:01N 32°21' W 117°09'4 7.1
2018-Dec-14 07:30N 32°24' W 117°10'4 7.2
2018-Dec-14 07:00N 32°27' W 117°12'4 7.3
2018-Dec-14 06:30N 32°31' W 117°13'4 7.3
2018-Dec-14 06:00N 32°34' W 117°13'4 7.3
2018-Dec-14 05:31N 32°38' W 117°13'4 7.2
2018-Dec-14 05:00N 32°42' W 117°14'3 5.7
2018-Dec-14 04:30N 32°43' W 117°11'2 0.2
2018-Dec-13 18:13N 32°42' W 117°09'1 1.8
2018-Dec-13 17:48N 32°41' W 117°09'1 0.2
2018-Dec-13 14:37N 32°42' W 117°09'0 3.6
2018-Dec-13 14:30N 32°42' W 117°10'3 5.9
2018-Dec-13 14:00N 32°43' W 117°13'4 8.3
2018-Dec-13 13:30N 32°39' W 117°14'5 9.3
2018-Dec-13 13:00N 32°36' W 117°18'5 9.8
2018-Dec-13 12:30N 32°31' W 117°19'5 9.9
2018-Dec-13 12:00N 32°26' W 117°20'510.2
2018-Dec-13 11:30N 32°22' W 117°16'510.0
2018-Dec-13 10:59N 32°18' W 117°12'510.0
2018-Dec-13 10:28N 32°14' W 117°08'5 9.9
2018-Dec-13 10:00N 32°11' W 117°04'810.1
2018-Dec-13 09:10N 32°04' W 116°58'2 9.9
2018-Dec-13 08:57N 32°03' W 116°56'  

Dump ship's entire track history